Time;durP1;ratioP1;P1;durP2;ratioP2;P2;SDS_P1;SDS_P2;PMS_P1;PMS_P2;Temp;Humidity;BMP_temperature;BMP_pressure;BME280_temperature;BME280_humidity;BME280_pressure;Samples;Min_cycle;Max_cycle;Signal;HPM_P1;HPM_P2
2022/09/30 00:00:40;;;;;;;11.80;9.38;;;10.40;99.90;;;;;;4921532;29;20063;-74
2022/09/30 00:03:07;;;;;;;15.48;10.02;;;10.30;99.90;;;;;;4925059;29;20054;-75
2022/09/30 00:05:34;;;;;;;11.95;9.43;;;10.40;99.90;;;;;;4933641;29;20060;-74
2022/09/30 00:08:01;;;;;;;13.65;9.98;;;10.30;99.90;;;;;;4923368;29;20062;-75
2022/09/30 00:10:30;;;;;;;13.02;9.73;;;10.40;99.90;;;;;;4917007;29;20047;-75
2022/09/30 00:12:57;;;;;;;13.30;9.45;;;10.30;99.90;;;;;;4932541;29;20054;-74
2022/09/30 00:15:24;;;;;;;10.20;8.23;;;10.30;99.90;;;;;;4919993;29;20106;-75
2022/09/30 00:17:51;;;;;;;14.10;9.45;;;10.30;99.90;;;;;;4933956;29;20083;-75
2022/09/30 00:20:18;;;;;;;12.25;8.93;;;10.20;99.90;;;;;;4934887;29;20050;-75
2022/09/30 00:22:45;;;;;;;13.43;9.05;;;10.20;99.90;;;;;;4925615;29;20051;-71
2022/09/30 00:25:13;;;;;;;12.65;8.27;;;10.20;99.90;;;;;;4928585;29;20044;-71
2022/09/30 00:27:41;;;;;;;9.05;6.43;;;10.20;99.90;;;;;;4920567;29;20055;-71
2022/09/30 00:30:09;;;;;;;11.60;7.30;;;10.20;99.90;;;;;;4933074;29;20479;-71
2022/09/30 00:32:36;;;;;;;8.35;7.45;;;10.20;99.90;;;;;;4932896;29;20051;-71
2022/09/30 00:35:04;;;;;;;8.75;7.45;;;10.20;99.90;;;;;;4931671;29;20573;-70
2022/09/30 00:37:31;;;;;;;12.20;7.85;;;10.20;99.90;;;;;;4924239;29;20564;-70
2022/09/30 00:40:02;;;;;;;10.80;6.95;;;10.20;99.90;;;;;;4933475;29;20476;-70
2022/09/30 00:42:30;;;;;;;10.82;7.70;;;10.20;99.90;;;;;;4933630;29;20055;-70
2022/09/30 00:45:04;;;;;;;9.90;7.07;;;10.20;99.90;;;;;;4926887;29;20055;-70
2022/09/30 00:47:48;;;;;;;12.48;7.25;;;10.20;99.90;;;;;;4927236;29;20047;-70
2022/09/30 00:50:41;;;;;;;9.32;7.85;;;10.20;99.90;;;;;;4908377;29;20531;-70
2022/09/30 00:53:13;;;;;;;8.37;6.30;;;10.20;99.90;;;;;;4906360;29;20114;-71
2022/09/30 00:55:47;;;;;;;7.70;6.20;;;10.20;99.90;;;;;;4922445;29;20071;-70
2022/09/30 00:58:20;;;;;;;11.93;7.53;;;10.20;99.90;;;;;;4928740;29;20061;-71
2022/09/30 01:00:51;;;;;;;8.77;6.68;;;10.30;99.90;;;;;;4927678;29;20063;-70
2022/09/30 01:03:21;;;;;;;7.10;6.05;;;10.30;99.90;;;;;;4934065;29;20098;-71
2022/09/30 01:05:54;;;;;;;9.52;6.30;;;10.30;99.90;;;;;;4934094;29;20071;-71
2022/09/30 01:08:23;;;;;;;6.90;5.82;;;10.30;99.90;;;;;;4910038;29;20563;-71
2022/09/30 01:10:50;;;;;;;8.50;6.00;;;10.30;99.90;;;;;;4915349;29;20592;-71
2022/09/30 01:13:21;;;;;;;7.93;5.05;;;10.30;99.90;;;;;;4914154;29;20504;-71
2022/09/30 01:16:11;;;;;;;6.55;5.90;;;10.30;99.90;;;;;;4915177;29;20083;-70
2022/09/30 01:18:53;;;;;;;5.82;5.15;;;10.40;99.90;;;;;;4917244;29;20090;-71
2022/09/30 01:21:49;;;;;;;7.13;5.18;;;10.30;99.90;;;;;;4923840;29;20074;-71
2022/09/30 01:24:47;;;;;;;7.57;5.07;;;10.30;99.90;;;;;;4928510;29;20044;-71
2022/09/30 01:27:43;;;;;;;6.63;5.15;;;10.30;99.90;;;;;;4928331;29;20067;-72
2022/09/30 01:30:16;;;;;;;7.25;5.20;;;10.30;99.90;;;;;;4924398;29;20390;-71
2022/09/30 01:33:12;;;;;;;6.68;5.70;;;10.30;99.90;;;;;;4914113;29;20055;-71
2022/09/30 01:35:52;;;;;;;10.50;5.40;;;10.40;99.90;;;;;;4923599;29;20429;-71
2022/09/30 01:38:28;;;;;;;6.82;6.22;;;10.40;99.90;;;;;;4923403;29;20457;-71
2022/09/30 01:41:03;;;;;;;5.45;4.93;;;10.40;99.90;;;;;;4922182;29;20048;-71
2022/09/30 01:43:40;;;;;;;8.68;6.35;;;10.40;99.90;;;;;;4929272;29;20087;-71
2022/09/30 01:46:18;;;;;;;8.18;6.03;;;10.40;99.90;;;;;;4920130;29;20048;-71
2022/09/30 01:48:55;;;;;;;7.22;6.38;;;10.40;99.90;;;;;;4923046;29;20086;-70
2022/09/30 01:51:29;;;;;;;11.50;7.38;;;10.40;99.90;;;;;;4914285;29;20111;-70
2022/09/30 01:54:00;;;;;;;7.20;5.80;;;10.30;99.90;;;;;;4920794;29;20044;-71
2022/09/30 01:56:32;;;;;;;6.68;5.93;;;10.40;99.90;;;;;;4934042;29;20119;-70
2022/09/30 01:59:04;;;;;;;10.88;7.45;;;10.30;99.90;;;;;;4930143;29;20055;-70
2022/09/30 02:01:38;;;;;;;6.87;6.17;;;10.30;99.90;;;;;;4918546;29;20075;-70
2022/09/30 02:04:10;;;;;;;9.45;6.55;;;10.30;99.90;;;;;;4920544;29;20047;-71
2022/09/30 02:06:45;;;;;;;6.72;6.13;;;10.30;99.90;;;;;;4924927;29;20141;-70
2022/09/30 02:09:15;;;;;;;6.15;5.55;;;10.40;99.90;;;;;;4913262;29;20059;-70
2022/09/30 02:11:43;;;;;;;6.90;5.32;;;10.40;99.90;;;;;;4914258;29;20527;-70
2022/09/30 02:14:15;;;;;;;6.85;6.25;;;10.40;99.90;;;;;;4932472;29;20058;-71
2022/09/30 02:16:47;;;;;;;6.30;5.80;;;10.30;99.90;;;;;;4932755;29;20063;-71
2022/09/30 02:19:19;;;;;;;8.43;5.80;;;10.30;99.90;;;;;;4933244;29;20114;-71
2022/09/30 02:21:55;;;;;;;6.88;6.22;;;10.30;99.90;;;;;;4927231;29;20086;-71
2022/09/30 02:24:24;;;;;;;7.22;6.50;;;10.30;99.90;;;;;;4931835;29;20555;-71
2022/09/30 02:26:54;;;;;;;7.95;5.88;;;10.30;99.90;;;;;;4917708;29;20103;-71
2022/09/30 02:29:26;;;;;;;8.75;6.40;;;10.30;99.90;;;;;;4921465;29;20416;-70
2022/09/30 02:31:58;;;;;;;8.75;6.38;;;10.30;99.90;;;;;;4932286;29;20143;-70
2022/09/30 02:34:30;;;;;;;9.00;5.57;;;10.30;99.90;;;;;;4916785;29;20143;-70
2022/09/30 02:37:03;;;;;;;6.78;5.57;;;10.30;99.90;;;;;;4914009;29;20066;-71
2022/09/30 02:39:41;;;;;;;8.18;6.30;;;10.30;99.90;;;;;;4929420;29;20066;-70
2022/09/30 02:42:14;;;;;;;8.15;5.93;;;10.30;99.90;;;;;;4921446;29;20058;-69
2022/09/30 02:44:41;;;;;;;8.13;5.78;;;10.30;99.90;;;;;;4933030;29;20126;-69
2022/09/30 02:47:15;;;;;;;10.13;7.15;;;10.30;99.90;;;;;;4931979;29;20063;-69
2022/09/30 02:49:49;;;;;;;8.55;6.50;;;10.30;99.90;;;;;;4932735;29;20345;-69
2022/09/30 02:52:24;;;;;;;5.68;5.18;;;10.30;99.90;;;;;;4928832;29;20055;-69
2022/09/30 02:55:02;;;;;;;6.43;5.80;;;10.20;99.90;;;;;;4914260;29;20134;-70
2022/09/30 02:57:38;;;;;;;7.88;5.95;;;10.20;99.90;;;;;;4925744;29;20055;-70
2022/09/30 03:00:07;;;;;;;6.80;6.10;;;10.20;99.90;;;;;;4915245;29;20063;-70
2022/09/30 03:02:34;;;;;;;7.13;6.25;;;10.20;99.90;;;;;;4925900;29;20051;-70
2022/09/30 03:05:03;;;;;;;7.95;5.85;;;10.10;99.90;;;;;;4914721;29;20060;-70
2022/09/30 03:07:31;;;;;;;6.88;6.28;;;10.10;99.90;;;;;;4930597;29;20055;-70
2022/09/30 03:09:59;;;;;;;7.22;6.55;;;10.10;99.90;;;;;;4919798;29;20064;-71
2022/09/30 03:12:39;;;;;;;10.30;6.53;;;10.20;99.90;;;;;;4923830;29;20064;-71
2022/09/30 03:15:24;;;;;;;11.88;8.82;;;10.20;99.90;;;;;;4921015;29;20058;-71
2022/09/30 03:18:03;;;;;;;8.90;6.38;;;10.20;99.90;;;;;;4915034;29;20492;-72
2022/09/30 03:20:46;;;;;;;6.82;6.10;;;10.20;99.90;;;;;;4913641;29;20056;-71
2022/09/30 03:23:21;;;;;;;;;;;10.30;99.90;;;;;;4915512;29;20429;-72
2022/09/30 03:25:56;;;;;;;5.82;5.32;;;10.20;99.90;;;;;;4937959;29;19927;-71
2022/09/30 03:28:28;;;;;;;6.50;5.90;;;10.20;99.90;;;;;;4936144;29;20055;-72
2022/09/30 03:31:05;;;;;;;6.47;5.60;;;10.20;99.90;;;;;;4936120;29;20051;-71
2022/09/30 03:33:39;;;;;;;6.63;6.05;;;10.10;99.90;;;;;;4918284;29;20415;-72
2022/09/30 03:36:14;;;;;;;6.97;5.80;;;10.20;99.90;;;;;;4933269;29;20508;-71
2022/09/30 03:38:49;;;;;;;6.57;5.97;;;10.10;99.90;;;;;;4936064;29;20155;-70
2022/09/30 03:41:25;;;;;;;6.35;5.80;;;10.10;99.90;;;;;;4934865;29;20105;-71
2022/09/30 03:43:58;;;;;;;8.52;6.97;;;10.20;99.90;;;;;;4934803;29;20129;-71
2022/09/30 03:46:30;;;;;;;7.22;5.65;;;10.10;99.90;;;;;;4933707;29;20106;-73
2022/09/30 03:49:01;;;;;;;9.98;6.78;;;10.10;99.90;;;;;;4923586;29;20060;-71
2022/09/30 03:51:31;;;;;;;7.30;6.07;;;10.10;99.90;;;;;;4924316;29;20167;-70
2022/09/30 03:53:59;;;;;;;6.20;5.22;;;10.10;99.90;;;;;;4933372;29;20134;-69
2022/09/30 03:56:28;;;;;;;9.15;6.72;;;10.10;99.90;;;;;;4935064;29;20067;-70
2022/09/30 03:58:57;;;;;;;8.20;5.72;;;10.10;99.90;;;;;;4935551;29;20063;-70
2022/09/30 04:01:24;;;;;;;6.60;6.00;;;10.10;99.90;;;;;;4934750;29;20135;-69
2022/09/30 04:03:53;;;;;;;6.63;5.35;;;10.10;99.90;;;;;;4935116;29;20089;-69
2022/09/30 04:06:22;;;;;;;10.07;6.25;;;10.10;99.90;;;;;;4920586;29;20075;-70
2022/09/30 04:08:52;;;;;;;8.27;5.38;;;10.10;99.90;;;;;;4918669;29;20078;-69
2022/09/30 04:11:20;;;;;;;7.07;5.32;;;10.20;99.90;;;;;;4937775;29;20058;-69
2022/09/30 04:13:47;;;;;;;6.40;5.53;;;10.20;99.90;;;;;;4946942;29;20043;-69
2022/09/30 04:16:14;;;;;;;5.60;5.07;;;10.20;99.90;;;;;;4944275;29;20050;-73
2022/09/30 04:18:41;;;;;;;6.05;5.50;;;10.20;99.90;;;;;;4941433;28;20060;-74
2022/09/30 04:21:10;;;;;;;7.22;5.72;;;10.20;99.90;;;;;;4926255;29;20531;-75
2022/09/30 04:23:38;;;;;;;6.13;5.53;;;10.10;99.90;;;;;;4921449;29;20047;-69
2022/09/30 04:26:09;;;;;;;5.88;5.18;;;10.10;99.90;;;;;;4915884;29;20044;-71
2022/09/30 04:28:36;;;;;;;7.28;5.90;;;10.10;99.90;;;;;;4931339;29;20071;-71
2022/09/30 04:31:05;;;;;;;5.55;5.10;;;10.20;99.90;;;;;;4933652;29;20055;-73
2022/09/30 04:33:33;;;;;;;6.25;5.65;;;10.20;99.90;;;;;;4933600;29;20058;-74
2022/09/30 04:36:01;;;;;;;6.53;5.32;;;10.20;99.90;;;;;;4932912;29;20500;-74
2022/09/30 04:38:29;;;;;;;7.68;5.95;;;10.20;99.90;;;;;;4944415;29;20083;-73
2022/09/30 04:40:57;;;;;;;7.22;5.22;;;10.30;99.90;;;;;;4938054;29;20044;-72
2022/09/30 04:43:27;;;;;;;7.63;5.85;;;10.30;99.90;;;;;;4946182;28;20164;-71
2022/09/30 04:45:55;;;;;;;7.65;5.50;;;10.30;99.90;;;;;;4934680;29;20058;-77
2022/09/30 04:48:22;;;;;;;10.30;5.97;;;10.30;99.90;;;;;;4933362;29;20114;-77
2022/09/30 04:50:50;;;;;;;6.38;5.78;;;10.30;99.90;;;;;;4933441;29;20047;-77
2022/09/30 04:53:18;;;;;;;8.15;5.65;;;10.30;99.90;;;;;;4934299;29;20594;-77
2022/09/30 04:55:46;;;;;;;10.60;5.50;;;10.30;99.90;;;;;;4933740;29;20055;-72
2022/09/30 04:58:14;;;;;;;6.88;5.70;;;10.40;99.90;;;;;;4932885;29;20054;-74
2022/09/30 05:00:42;;;;;;;7.68;6.07;;;10.40;99.90;;;;;;4939193;29;20443;-72
2022/09/30 05:03:09;;;;;;;6.75;6.13;;;10.40;99.90;;;;;;4926592;29;20051;-71
2022/09/30 05:05:37;;;;;;;6.75;6.05;;;10.50;99.90;;;;;;4933399;29;20055;-71
2022/09/30 05:08:05;;;;;;;10.63;5.78;;;10.50;99.90;;;;;;4923966;29;20051;-70
2022/09/30 05:10:32;;;;;;;6.25;4.90;;;10.50;99.90;;;;;;4934687;29;20143;-71
2022/09/30 05:13:01;;;;;;;6.20;4.88;;;10.50;99.90;;;;;;4932151;29;20409;-71
2022/09/30 05:15:28;;;;;;;7.55;5.15;;;10.50;99.90;;;;;;4931904;29;20138;-71
2022/09/30 05:17:56;;;;;;;6.63;5.53;;;10.50;99.90;;;;;;4933851;29;20138;-71
2022/09/30 05:20:24;;;;;;;5.97;5.22;;;10.40;99.90;;;;;;4926794;29;20452;-72
2022/09/30 05:22:55;;;;;;;6.88;5.65;;;10.40;99.90;;;;;;4930170;28;20047;-72
2022/09/30 05:25:22;;;;;;;5.65;5.15;;;10.30;99.90;;;;;;4923576;29;20473;-71
2022/09/30 05:27:49;;;;;;;5.63;5.15;;;10.30;99.90;;;;;;4929653;29;20516;-70
2022/09/30 05:30:17;;;;;;;5.90;5.35;;;10.20;99.90;;;;;;4930679;29;20091;-71
2022/09/30 05:32:44;;;;;;;6.18;5.25;;;10.20;99.90;;;;;;4929725;29;20127;-71
2022/09/30 05:35:13;;;;;;;5.45;4.95;;;10.20;99.90;;;;;;4924109;29;20082;-71
2022/09/30 05:37:42;;;;;;;10.95;5.38;;;10.20;99.90;;;;;;4899700;29;20139;-70
2022/09/30 05:40:10;;;;;;;10.50;5.20;;;10.20;99.90;;;;;;4928791;29;20055;-70
2022/09/30 05:42:37;;;;;;;5.00;4.40;;;10.20;99.90;;;;;;4910552;29;20058;-70
2022/09/30 05:45:05;;;;;;;5.85;5.00;;;10.30;99.90;;;;;;4933915;29;20051;-71
2022/09/30 05:47:32;;;;;;;8.80;4.65;;;10.40;99.90;;;;;;4932127;29;20138;-76
2022/09/30 05:50:00;;;;;;;7.32;5.25;;;10.40;99.90;;;;;;4922730;29;20138;-75
2022/09/30 05:52:29;;;;;;;10.80;5.68;;;10.40;99.90;;;;;;4904896;29;20046;-70
2022/09/30 05:54:59;;;;;;;5.78;5.18;;;10.40;99.90;;;;;;4924914;29;20055;-69
2022/09/30 06:00:26;;;;;;;7.80;4.38;;;10.50;99.90;;;;;;5139059;27;20936;-72
2022/09/30 06:02:54;;;;;;;6.93;4.90;;;10.50;99.90;;;;;;5103891;28;20043;-73
2022/09/30 06:05:22;;;;;;;8.23;5.80;;;10.50;99.90;;;;;;5077569;28;20048;-73
2022/09/30 06:07:49;;;;;;;7.00;6.18;;;10.60;99.90;;;;;;5106853;28;20044;-71
2022/09/30 06:10:17;;;;;;;9.40;5.30;;;10.50;99.90;;;;;;5088557;28;20143;-71
2022/09/30 06:12:45;;;;;;;5.20;4.70;;;10.50;99.90;;;;;;5097944;28;20442;-70
2022/09/30 06:15:12;;;;;;;7.03;5.03;;;10.50;99.90;;;;;;5090772;28;20083;-72
2022/09/30 06:17:41;;;;;;;4.95;4.55;;;10.40;99.90;;;;;;5102308;28;20067;-70
2022/09/30 06:20:10;;;;;;;7.60;4.78;;;10.50;99.90;;;;;;5088725;28;20054;-69
2022/09/30 06:22:37;;;;;;;9.82;6.32;;;10.40;99.90;;;;;;5089025;28;20051;-72
2022/09/30 06:25:06;;;;;;;4.72;4.32;;;10.50;99.90;;;;;;5092359;28;20044;-69
2022/09/30 06:27:34;;;;;;;6.32;4.75;;;10.40;99.90;;;;;;5107369;28;20048;-69
2022/09/30 06:30:02;;;;;;;6.63;4.60;;;10.40;99.90;;;;;;5108275;28;20048;-70
2022/09/30 06:32:30;;;;;;;11.13;8.75;;;10.40;99.90;;;;;;5081125;28;20043;-69
2022/09/30 06:34:58;;;;;;;9.45;4.70;;;10.50;99.90;;;;;;5094367;28;20055;-70
2022/09/30 06:37:26;;;;;;;5.22;4.35;;;10.50;99.90;;;;;;5093650;28;20501;-69
2022/09/30 06:39:57;;;;;;;8.00;4.20;;;10.50;99.90;;;;;;5094674;28;20056;-71
2022/09/30 06:42:24;;;;;;;11.43;5.55;;;10.60;99.90;;;;;;5095907;28;20050;-69
2022/09/30 06:44:52;;;;;;;5.85;4.05;;;10.70;99.90;;;;;;5096440;28;20488;-69
2022/09/30 06:47:19;;;;;;;5.63;5.13;;;10.80;99.90;;;;;;5095293;28;20048;-76
2022/09/30 06:49:46;;;;;;;7.32;5.05;;;10.80;99.90;;;;;;5077973;28;20044;-75
2022/09/30 06:52:15;;;;;;;6.18;5.13;;;10.80;99.90;;;;;;5076432;28;20044;-75
2022/09/30 06:54:43;;;;;;;6.40;5.10;;;10.80;99.90;;;;;;5060678;28;20048;-74
2022/09/30 06:57:11;;;;;;;9.90;6.10;;;10.80;99.90;;;;;;5094878;28;20439;-75
2022/09/30 06:59:38;;;;;;;9.05;5.43;;;10.80;99.90;;;;;;5097522;28;20047;-76
2022/09/30 07:02:05;;;;;;;7.07;4.70;;;10.80;99.90;;;;;;5108953;28;20043;-76
2022/09/30 07:04:33;;;;;;;5.57;4.78;;;10.90;99.90;;;;;;5094183;28;20146;-75
2022/09/30 07:07:01;;;;;;;6.00;5.32;;;10.90;99.90;;;;;;5120296;28;20423;-75
2022/09/30 07:09:30;;;;;;;6.93;5.00;;;10.90;99.90;;;;;;5126487;28;20052;-77
2022/09/30 07:11:58;;;;;;;5.47;4.97;;;10.90;99.90;;;;;;5092931;28;20085;-77
2022/09/30 07:14:25;;;;;;;5.32;4.38;;;10.90;99.90;;;;;;5093759;28;20044;-77
2022/09/30 07:16:53;;;;;;;6.78;4.72;;;10.80;99.90;;;;;;5055086;28;20072;-76
2022/09/30 07:19:21;;;;;;;5.55;4.88;;;10.70;99.90;;;;;;5074624;28;20044;-76
2022/09/30 07:21:49;;;;;;;6.10;5.20;;;10.70;99.90;;;;;;5092334;28;20044;-76
2022/09/30 07:24:18;;;;;;;9.48;4.75;;;10.70;99.90;;;;;;5093183;28;20044;-76
2022/09/30 07:26:46;;;;;;;5.45;4.40;;;10.70;99.90;;;;;;5075227;28;20047;-75
2022/09/30 07:29:14;;;;;;;4.97;4.53;;;10.70;99.90;;;;;;5093169;28;20500;-76
2022/09/30 07:31:41;;;;;;;5.10;4.68;;;10.80;99.90;;;;;;5073894;28;20626;-76
2022/09/30 07:34:10;;;;;;;6.13;4.25;;;10.80;99.90;;;;;;5092936;28;20135;-76
2022/09/30 07:36:40;;;;;;;4.43;4.03;;;10.70;99.90;;;;;;5077226;28;20055;-77
2022/09/30 07:39:10;;;;;;;5.22;4.72;;;10.80;99.90;;;;;;5092767;28;20055;-76
2022/09/30 07:41:40;;;;;;;4.75;4.35;;;10.80;99.90;;;;;;5074466;28;20059;-76
2022/09/30 07:44:13;;;;;;;9.00;4.13;;;10.70;99.90;;;;;;5092560;28;20040;-76
2022/09/30 07:46:44;;;;;;;5.20;3.70;;;10.80;99.90;;;;;;5074061;28;20470;-76
2022/09/30 07:49:23;;;;;;;5.45;4.63;;;10.80;99.90;;;;;;5090796;28;20126;-77
2022/09/30 07:51:51;;;;;;;4.93;4.18;;;10.80;99.90;;;;;;5091154;28;20079;-75
2022/09/30 07:54:22;;;;;;;6.75;4.10;;;10.80;99.90;;;;;;5070113;28;20163;-75
2022/09/30 07:56:51;;;;;;;6.25;3.40;;;10.80;99.90;;;;;;5089038;28;20040;-75
2022/09/30 07:59:20;;;;;;;5.68;3.63;;;10.70;99.90;;;;;;5036454;28;20054;-76
2022/09/30 08:01:49;;;;;;;5.47;3.90;;;10.70;99.90;;;;;;5090455;28;20040;-75
2022/09/30 08:04:19;;;;;;;6.55;4.45;;;10.70;99.90;;;;;;5090850;28;20326;-76
2022/09/30 08:06:51;;;;;;;4.70;3.80;;;10.80;99.90;;;;;;5087567;28;20052;-76
2022/09/30 08:09:21;;;;;;;6.57;4.40;;;10.90;99.90;;;;;;5057065;28;20052;-76
2022/09/30 08:11:49;;;;;;;3.83;3.42;;;11.00;99.90;;;;;;5066099;28;20070;-76
2022/09/30 08:14:21;;;;;;;6.65;4.22;;;11.10;99.90;;;;;;5090061;28;20478;-77
2022/09/30 08:16:49;;;;;;;4.30;3.90;;;11.20;99.90;;;;;;5088476;28;20463;-77
2022/09/30 08:19:19;;;;;;;4.50;3.70;;;11.20;99.90;;;;;;5090367;28;20411;-77
2022/09/30 08:21:47;;;;;;;4.72;3.47;;;11.20;99.90;;;;;;5069996;28;20466;-78
2022/09/30 08:24:15;;;;;;;4.70;3.80;;;11.20;99.90;;;;;;5086081;28;20574;-78
2022/09/30 08:26:43;;;;;;;8.02;4.53;;;11.20;99.90;;;;;;5068730;28;20661;-78
2022/09/30 08:29:12;;;;;;;6.15;3.65;;;11.20;99.90;;;;;;5089212;28;20377;-78
2022/09/30 08:31:41;;;;;;;6.68;4.55;;;11.20;99.90;;;;;;5062032;28;20054;-78
2022/09/30 08:34:09;;;;;;;8.77;4.60;;;11.20;99.90;;;;;;5091498;28;20070;-77
2022/09/30 08:36:36;;;;;;;10.05;5.05;;;11.20;99.90;;;;;;5089287;28;20063;-77
2022/09/30 08:39:04;;;;;;;6.55;3.50;;;11.30;99.90;;;;;;5091375;28;20048;-78
2022/09/30 08:41:54;;;;;;;5.90;3.80;;;11.40;99.90;;;;;;5090698;28;20041;-77
2022/09/30 08:44:41;;;;;;;6.47;4.15;;;11.50;99.90;;;;;;5081267;28;20113;-78
2022/09/30 08:47:40;;;;;;;5.05;3.72;;;11.60;99.90;;;;;;5088375;28;20575;-77
2022/09/30 08:50:20;;;;;;;5.40;4.28;;;11.60;99.90;;;;;;5086408;28;20097;-78
2022/09/30 08:52:51;;;;;;;5.35;4.05;;;11.70;99.90;;;;;;5064802;28;20649;-77
2022/09/30 08:55:23;;;;;;;8.70;4.30;;;11.80;99.90;;;;;;5090414;28;20040;-76
2022/09/30 08:57:53;;;;;;;5.85;4.15;;;11.90;99.90;;;;;;5088033;28;20135;-78
2022/09/30 09:00:21;;;;;;;5.80;3.83;;;12.00;99.90;;;;;;5088605;28;20059;-77
2022/09/30 09:02:53;;;;;;;5.03;3.03;;;12.10;99.90;;;;;;5090213;28;20097;-77
2022/09/30 09:05:37;;;;;;;3.83;3.50;;;12.30;99.90;;;;;;5089399;28;20052;-76
2022/09/30 09:08:08;;;;;;;;;;;12.40;99.90;;;;;;5090078;28;20059;-78
2022/09/30 09:10:43;;;;;;;4.65;3.90;;;12.50;99.90;;;;;;5072669;28;20013;-77
2022/09/30 09:13:31;;;;;;;5.40;3.78;;;12.60;99.90;;;;;;5054384;28;20161;-77
2022/09/30 09:16:10;;;;;;;4.53;3.25;;;12.70;99.90;;;;;;5089724;28;20083;-78
2022/09/30 09:18:52;;;;;;;7.10;4.28;;;12.70;99.90;;;;;;5085406;28;20040;-76
2022/09/30 09:21:24;;;;;;;4.35;3.33;;;12.60;99.90;;;;;;5092454;28;20520;-79
2022/09/30 09:23:56;;;;;;;8.68;4.07;;;12.70;99.90;;;;;;5089590;28;20044;-77
2022/09/30 09:26:26;;;;;;;4.37;3.97;;;12.70;99.90;;;;;;5089671;28;20059;-79
2022/09/30 09:29:15;;;;;;;4.95;3.88;;;12.60;99.90;;;;;;5090053;28;20513;-77
2022/09/30 09:31:42;;;;;;;5.75;4.03;;;12.40;99.90;;;;;;5089001;28;20040;-76
2022/09/30 09:34:12;;;;;;;4.75;3.90;;;12.30;99.90;;;;;;5071509;28;20142;-76
2022/09/30 09:36:58;;;;;;;5.60;4.03;;;12.30;99.90;;;;;;5088602;28;20052;-77
2022/09/30 09:39:52;;;;;;;3.67;3.38;;;12.30;99.90;;;;;;5069711;28;20429;-77
2022/09/30 09:42:54;;;;;;;4.50;4.00;;;12.40;99.90;;;;;;5069743;28;20109;-76
2022/09/30 09:45:31;;;;;;;4.80;3.67;;;12.30;99.90;;;;;;5087073;28;20048;-77
2022/09/30 09:47:59;;;;;;;6.45;3.95;;;12.30;99.90;;;;;;5088496;28;20040;-76
2022/09/30 09:50:38;;;;;;;4.95;4.03;;;12.20;99.90;;;;;;5088454;28;20496;-76
2022/09/30 09:53:22;;;;;;;4.40;3.60;;;12.30;99.90;;;;;;5086669;28;20043;-76
2022/09/30 09:55:56;;;;;;;4.90;4.10;;;12.30;99.90;;;;;;5088331;28;20062;-76
2022/09/30 09:58:23;;;;;;;6.47;4.93;;;12.50;99.90;;;;;;5088948;28;20058;-77
2022/09/30 10:01:24;;;;;;;4.03;3.53;;;12.70;99.90;;;;;;5088749;28;20052;-76
2022/09/30 10:04:09;;;;;;;6.70;4.72;;;13.00;99.90;;;;;;5086757;28;20056;-78
2022/09/30 10:06:52;;;;;;;9.30;4.35;;;13.30;99.90;;;;;;5086333;28;20048;-75
2022/09/30 10:09:27;;;;;;;9.85;4.57;;;13.50;99.90;;;;;;5088984;28;20109;-76
2022/09/30 10:12:30;;;;;;;8.70;4.88;;;13.40;99.90;;;;;;5085775;28;20048;-76
2022/09/30 10:15:02;;;;;;;4.75;3.70;;;13.40;99.90;;;;;;5064103;28;20509;-77
2022/09/30 10:17:35;;;;;;;6.25;4.18;;;13.30;99.90;;;;;;5082203;28;20479;-76
2022/09/30 10:20:08;;;;;;;6.28;3.17;;;13.10;99.90;;;;;;5062320;28;20419;-76
2022/09/30 10:22:38;;;;;;;10.68;6.25;;;13.00;99.90;;;;;;5080226;28;20411;-77
2022/09/30 10:25:26;;;;;;;12.82;6.43;;;12.80;99.90;;;;;;5083292;28;20053;-76
2022/09/30 10:27:58;;;;;;;6.55;5.20;;;12.70;99.90;;;;;;5061381;28;20458;-76
2022/09/30 10:30:42;;;;;;;11.68;5.72;;;12.70;99.90;;;;;;5080152;28;20087;-76
2022/09/30 10:33:27;;;;;;;14.38;5.70;;;12.70;99.90;;;;;;5079031;28;20081;-76
2022/09/30 10:36:07;;;;;;;8.35;4.35;;;12.90;99.90;;;;;;5079179;28;20144;-76
2022/09/30 10:38:39;;;;;;;9.30;4.78;;;12.90;99.90;;;;;;5082017;28;20071;-76
2022/09/30 10:41:07;;;;;;;8.13;5.25;;;13.00;99.90;;;;;;5082861;28;20051;-76
2022/09/30 10:43:43;;;;;;;5.38;3.63;;;13.10;99.90;;;;;;5083589;28;20121;-76
2022/09/30 10:46:12;;;;;;;4.93;3.60;;;13.00;99.90;;;;;;5081685;28;20048;-76
2022/09/30 10:48:41;;;;;;;3.63;3.40;;;13.00;99.90;;;;;;5083398;28;20052;-77
2022/09/30 10:51:26;;;;;;;4.55;3.45;;;12.90;99.90;;;;;;5074640;28;20508;-78
2022/09/30 10:53:56;;;;;;;5.50;2.95;;;12.80;99.90;;;;;;5093199;28;20135;-77
2022/09/30 10:56:38;;;;;;;3.38;3.17;;;12.80;99.90;;;;;;5093193;28;20150;-78
2022/09/30 10:59:18;;;;;;;3.13;2.83;;;12.70;99.90;;;;;;5091723;28;20048;-78
2022/09/30 11:01:50;;;;;;;7.18;4.00;;;12.60;99.90;;;;;;5074133;28;20066;-78
2022/09/30 11:04:27;;;;;;;5.90;3.43;;;12.50;99.90;;;;;;5073497;28;20112;-78
2022/09/30 11:07:05;;;;;;;3.97;3.55;;;12.50;99.90;;;;;;5092888;28;20290;-76
2022/09/30 11:09:43;;;;;;;5.03;3.72;;;12.50;99.90;;;;;;5093368;28;20092;-78
2022/09/30 11:12:19;;;;;;;7.20;3.80;;;12.40;99.90;;;;;;5074228;28;20603;-78
2022/09/30 11:14:56;;;;;;;4.45;4.05;;;12.30;99.90;;;;;;5074564;28;20044;-71
2022/09/30 11:17:32;;;;;;;5.03;4.50;;;12.20;99.90;;;;;;5092396;28;20535;-71
2022/09/30 11:20:12;;;;;;;4.75;4.07;;;12.20;99.90;;;;;;5090917;28;20091;-71
2022/09/30 11:22:49;;;;;;;5.43;3.88;;;12.30;99.90;;;;;;5079257;28;20044;-71
2022/09/30 11:25:26;;;;;;;8.15;4.78;;;12.30;99.90;;;;;;5089096;28;20048;-71
2022/09/30 11:28:31;;;;;;;4.55;4.15;;;12.30;99.90;;;;;;5092054;28;20075;-72
2022/09/30 11:31:11;;;;;;;8.63;5.88;;;12.30;99.90;;;;;;5090324;28;20436;-71
2022/09/30 11:33:55;;;;;;;6.57;5.18;;;12.40;99.90;;;;;;5091197;28;20129;-71
2022/09/30 11:36:31;;;;;;;8.27;4.22;;;12.50;99.90;;;;;;5084868;28;20067;-72
2022/09/30 11:39:29;;;;;;;6.80;4.30;;;12.80;99.90;;;;;;5083794;28;20052;-73
2022/09/30 11:42:08;;;;;;;4.75;3.05;;;13.30;99.90;;;;;;5089870;28;20249;-73
2022/09/30 11:44:40;;;;;;;3.88;2.60;;;14.10;99.90;;;;;;5074451;28;20549;-72
2022/09/30 11:47:36;;;;;;;3.97;3.05;;;15.20;99.90;;;;;;5090841;28;20092;-72
2022/09/30 11:50:53;;;;;;;2.92;2.65;;;15.50;99.90;;;;;;5091537;28;20051;-70
2022/09/30 11:53:35;;;;;;;2.70;2.50;;;14.90;99.90;;;;;;5091050;28;20207;-71
2022/09/30 11:56:16;;;;;;;3.47;2.78;;;14.40;99.90;;;;;;5092228;28;20051;-70
2022/09/30 11:58:49;;;;;;;3.00;2.45;;;14.00;99.90;;;;;;5091269;28;20056;-71
2022/09/30 12:01:24;;;;;;;4.25;2.80;;;13.70;99.90;;;;;;5088676;28;20129;-70
2022/09/30 12:04:01;;;;;;;4.90;2.08;;;13.60;99.90;;;;;;5090015;28;20066;-73
2022/09/30 12:06:35;;;;;;;5.05;2.38;;;13.50;99.90;;;;;;5074952;28;20460;-71
2022/09/30 12:09:24;;;;;;;3.75;2.40;;;13.50;99.90;;;;;;5085724;28;20048;-71
2022/09/30 12:11:57;;;;;;;9.88;2.40;;;13.50;99.90;;;;;;5090103;28;20166;-71
2022/09/30 12:14:35;;;;;;;3.58;2.28;;;13.50;99.90;;;;;;5092110;28;20048;-71
2022/09/30 12:17:11;;;;;;;5.88;2.40;;;13.60;99.90;;;;;;5090945;28;20051;-73
2022/09/30 12:19:45;;;;;;;2.60;2.10;;;13.70;99.90;;;;;;5090358;28;20047;-72
2022/09/30 12:22:18;;;;;;;5.15;3.58;;;13.50;99.90;;;;;;5085178;28;20102;-70
2022/09/30 12:24:45;;;;;;;7.75;3.00;;;13.40;99.90;;;;;;5085858;28;20052;-71
2022/09/30 12:27:21;;;;;;;6.63;3.70;;;13.20;99.90;;;;;;5070966;28;20040;-70
2022/09/30 12:30:16;;;;;;;6.10;2.97;;;13.00;99.90;;;;;;5091505;28;20567;-71
2022/09/30 12:33:33;;;;;;;4.85;3.35;;;12.90;99.90;;;;;;5073505;28;20058;-71
2022/09/30 12:36:39;;;;;;;4.28;3.40;;;12.60;99.90;;;;;;5091123;28;20058;-71
2022/09/30 12:39:57;;;;;;;8.27;3.83;;;12.40;99.90;;;;;;5054042;28;20139;-71
2022/09/30 12:42:58;;;;;;;8.70;3.03;;;12.20;99.90;;;;;;5090003;28;20062;-71
2022/09/30 12:45:55;;;;;;;7.75;3.28;;;11.90;99.90;;;;;;5090670;28;20626;-72
2022/09/30 12:48:33;;;;;;;5.63;3.13;;;11.40;99.90;;;;;;5090243;28;20048;-72
2022/09/30 12:51:01;;;;;;;5.82;2.53;;;11.00;99.90;;;;;;5091570;28;20137;-71
2022/09/30 12:53:31;;;;;;;2.60;1.67;;;10.80;99.90;;;;;;5091776;28;20050;-71
2022/09/30 12:56:05;;;;;;;4.47;3.00;;;10.70;99.90;;;;;;5091158;28;20462;-71
2022/09/30 12:58:37;;;;;;;8.15;4.53;;;10.60;99.90;;;;;;5085644;28;20056;-71
2022/09/30 13:01:12;;;;;;;6.15;4.35;;;10.60;99.90;;;;;;5090965;28;20059;-70
2022/09/30 13:03:51;;;;;;;1.90;1.60;;;10.60;99.90;;;;;;5072859;28;20060;-73
2022/09/30 13:06:21;;;;;;;2.72;1.52;;;10.80;99.90;;;;;;5090047;28;20151;-71
2022/09/30 13:09:19;;;;;;;3.63;1.30;;;10.80;99.90;;;;;;5091131;28;20139;-77
2022/09/30 13:11:48;;;;;;;4.72;1.00;;;10.80;99.90;;;;;;5070804;28;20416;-77
2022/09/30 13:14:24;;;;;;;2.15;1.10;;;10.90;99.90;;;;;;5078572;28;20055;-77
2022/09/30 13:17:21;;;;;;;1.40;1.30;;;11.10;99.90;;;;;;5089408;28;20090;-77
2022/09/30 13:19:51;;;;;;;1.55;1.20;;;11.30;99.90;;;;;;5073366;28;20146;-77
2022/09/30 13:22:59;;;;;;;6.18;2.38;;;11.50;99.90;;;;;;5090852;28;20275;-76